sensor_id;sensor_type;location;lat;lon;timestamp;P1;durP1;ratioP1;P2;durP2;ratioP2
21624;SDS011;10974;51.034;3.744;2023-05-10T03:39:36;12.30;;;10.37;;
21624;SDS011;10974;51.034;3.744;2023-05-10T03:42:02;16.73;;;10.87;;
21624;SDS011;10974;51.034;3.744;2023-05-10T03:44:28;14.50;;;11.03;;
21624;SDS011;10974;51.034;3.744;2023-05-10T03:46:54;13.10;;;10.70;;
21624;SDS011;10974;51.034;3.744;2023-05-10T03:49:22;12.47;;;9.90;;
21624;SDS011;10974;51.034;3.744;2023-05-10T03:51:48;14.90;;;11.43;;
21624;SDS011;10974;51.034;3.744;2023-05-10T03:54:14;14.20;;;10.70;;
21624;SDS011;10974;51.034;3.744;2023-05-10T03:56:40;14.30;;;10.70;;
21624;SDS011;10974;51.034;3.744;2023-05-10T03:59:06;16.03;;;11.57;;
21624;SDS011;10974;51.034;3.744;2023-05-10T04:01:34;14.00;;;10.80;;
21624;SDS011;10974;51.034;3.744;2023-05-10T04:04:00;16.93;;;13.10;;
21624;SDS011;10974;51.034;3.744;2023-05-10T04:06:26;18.10;;;12.73;;
21624;SDS011;10974;51.034;3.744;2023-05-10T04:08:52;17.50;;;13.23;;
21624;SDS011;10974;51.034;3.744;2023-05-10T04:11:18;14.47;;;12.30;;
21624;SDS011;10974;51.034;3.744;2023-05-10T04:13:46;21.20;;;13.20;;
21624;SDS011;10974;51.034;3.744;2023-05-10T04:16:13;15.70;;;12.90;;
21624;SDS011;10974;51.034;3.744;2023-05-10T04:18:39;17.47;;;12.93;;
21624;SDS011;10974;51.034;3.744;2023-05-10T04:21:10;20.47;;;13.83;;
21624;SDS011;10974;51.034;3.744;2023-05-10T04:23:37;18.10;;;13.90;;
21624;SDS011;10974;51.034;3.744;2023-05-10T04:26:03;18.13;;;14.50;;
21624;SDS011;10974;51.034;3.744;2023-05-10T04:28:30;23.37;;;16.87;;
21624;SDS011;10974;51.034;3.744;2023-05-10T04:31:06;21.40;;;16.53;;
21624;SDS011;10974;51.034;3.744;2023-05-10T04:33:32;23.50;;;17.17;;
21624;SDS011;10974;51.034;3.744;2023-05-10T04:35:59;20.90;;;15.80;;
21624;SDS011;10974;51.034;3.744;2023-05-10T04:38:25;22.53;;;16.37;;
21624;SDS011;10974;51.034;3.744;2023-05-10T04:40:52;24.40;;;16.43;;
21624;SDS011;10974;51.034;3.744;2023-05-10T04:43:18;19.83;;;15.57;;
21624;SDS011;10974;51.034;3.744;2023-05-10T04:45:44;24.63;;;16.80;;
21624;SDS011;10974;51.034;3.744;2023-05-10T04:48:10;21.13;;;15.40;;
21624;SDS011;10974;51.034;3.744;2023-05-10T04:50:36;21.77;;;16.83;;
21624;SDS011;10974;51.034;3.744;2023-05-10T04:53:02;23.60;;;17.40;;
21624;SDS011;10974;51.034;3.744;2023-05-10T04:55:28;21.27;;;15.83;;
21624;SDS011;10974;51.034;3.744;2023-05-10T04:57:54;23.67;;;16.80;;
21624;SDS011;10974;51.034;3.744;2023-05-10T05:00:22;23.87;;;18.00;;
21624;SDS011;10974;51.034;3.744;2023-05-10T05:02:48;23.80;;;17.70;;
21624;SDS011;10974;51.034;3.744;2023-05-10T05:05:14;24.03;;;18.83;;
21624;SDS011;10974;51.034;3.744;2023-05-10T05:07:41;24.57;;;18.27;;
21624;SDS011;10974;51.034;3.744;2023-05-10T05:10:07;26.90;;;18.80;;
21624;SDS011;10974;51.034;3.744;2023-05-10T05:12:34;27.30;;;19.33;;
21624;SDS011;10974;51.034;3.744;2023-05-10T05:15:00;24.10;;;17.80;;
21624;SDS011;10974;51.034;3.744;2023-05-10T05:17:27;31.67;;;21.83;;
21624;SDS011;10974;51.034;3.744;2023-05-10T05:19:53;30.33;;;21.83;;
21624;SDS011;10974;51.034;3.744;2023-05-10T05:22:21;24.13;;;18.63;;
21624;SDS011;10974;51.034;3.744;2023-05-10T05:24:52;28.10;;;20.40;;
21624;SDS011;10974;51.034;3.744;2023-05-10T05:27:19;26.50;;;18.40;;
21624;SDS011;10974;51.034;3.744;2023-05-10T05:29:49;25.50;;;20.07;;
21624;SDS011;10974;51.034;3.744;2023-05-10T05:32:16;23.53;;;18.67;;
21624;SDS011;10974;51.034;3.744;2023-05-10T05:34:44;27.37;;;19.50;;
21624;SDS011;10974;51.034;3.744;2023-05-10T05:37:17;25.90;;;19.50;;
21624;SDS011;10974;51.034;3.744;2023-05-10T05:39:43;24.53;;;18.80;;
21624;SDS011;10974;51.034;3.744;2023-05-10T05:42:10;27.60;;;19.03;;
21624;SDS011;10974;51.034;3.744;2023-05-10T05:44:36;69.57;;;18.60;;
21624;SDS011;10974;51.034;3.744;2023-05-10T05:47:02;27.53;;;20.93;;
21624;SDS011;10974;51.034;3.744;2023-05-10T05:49:28;25.20;;;19.40;;
21624;SDS011;10974;51.034;3.744;2023-05-10T05:51:58;30.07;;;21.60;;
21624;SDS011;10974;51.034;3.744;2023-05-10T05:54:24;31.00;;;22.93;;
21624;SDS011;10974;51.034;3.744;2023-05-10T05:56:53;32.20;;;22.73;;
21624;SDS011;10974;51.034;3.744;2023-05-10T05:59:19;28.30;;;21.50;;
21624;SDS011;10974;51.034;3.744;2023-05-10T06:01:45;33.37;;;22.40;;
21624;SDS011;10974;51.034;3.744;2023-05-10T06:04:11;34.33;;;22.70;;
21624;SDS011;10974;51.034;3.744;2023-05-10T06:06:37;34.87;;;21.47;;
21624;SDS011;10974;51.034;3.744;2023-05-10T06:09:03;28.93;;;20.70;;
21624;SDS011;10974;51.034;3.744;2023-05-10T06:11:29;28.30;;;21.87;;
21624;SDS011;10974;51.034;3.744;2023-05-10T06:13:57;29.20;;;21.30;;
21624;SDS011;10974;51.034;3.744;2023-05-10T06:16:23;28.20;;;20.03;;
21624;SDS011;10974;51.034;3.744;2023-05-10T06:18:49;28.57;;;19.33;;
21624;SDS011;10974;51.034;3.744;2023-05-10T06:21:16;30.03;;;20.33;;
21624;SDS011;10974;51.034;3.744;2023-05-10T06:23:42;27.93;;;20.43;;
21624;SDS011;10974;51.034;3.744;2023-05-10T06:26:08;25.67;;;17.87;;
21624;SDS011;10974;51.034;3.744;2023-05-10T06:28:35;28.37;;;20.90;;
21624;SDS011;10974;51.034;3.744;2023-05-10T06:31:03;31.17;;;21.50;;
21624;SDS011;10974;51.034;3.744;2023-05-10T06:33:29;34.47;;;21.00;;
21624;SDS011;10974;51.034;3.744;2023-05-10T06:35:56;27.23;;;20.90;;
21624;SDS011;10974;51.034;3.744;2023-05-10T06:38:22;30.50;;;21.70;;
21624;SDS011;10974;51.034;3.744;2023-05-10T06:40:48;32.67;;;22.03;;
21624;SDS011;10974;51.034;3.744;2023-05-10T06:43:14;33.10;;;21.90;;
21624;SDS011;10974;51.034;3.744;2023-05-10T06:45:40;29.70;;;21.60;;
21624;SDS011;10974;51.034;3.744;2023-05-10T06:48:07;31.23;;;22.30;;
21624;SDS011;10974;51.034;3.744;2023-05-10T06:50:33;34.53;;;23.20;;
21624;SDS011;10974;51.034;3.744;2023-05-10T06:52:59;30.93;;;22.50;;
21624;SDS011;10974;51.034;3.744;2023-05-10T06:55:26;35.03;;;23.47;;
21624;SDS011;10974;51.034;3.744;2023-05-10T06:57:55;32.63;;;23.67;;
21624;SDS011;10974;51.034;3.744;2023-05-10T07:00:21;36.77;;;23.43;;
21624;SDS011;10974;51.034;3.744;2023-05-10T07:02:47;31.37;;;23.13;;
21624;SDS011;10974;51.034;3.744;2023-05-10T07:05:13;30.73;;;20.83;;
21624;SDS011;10974;51.034;3.744;2023-05-10T07:07:40;26.20;;;20.60;;
21624;SDS011;10974;51.034;3.744;2023-05-10T07:10:06;33.33;;;22.17;;
21624;SDS011;10974;51.034;3.744;2023-05-10T07:12:33;31.90;;;21.47;;
21624;SDS011;10974;51.034;3.744;2023-05-10T07:14:59;26.20;;;20.77;;
21624;SDS011;10974;51.034;3.744;2023-05-10T07:17:25;29.00;;;19.50;;
21624;SDS011;10974;51.034;3.744;2023-05-10T07:19:51;28.63;;;19.73;;
21624;SDS011;10974;51.034;3.744;2023-05-10T07:22:17;29.20;;;19.57;;
21624;SDS011;10974;51.034;3.744;2023-05-10T07:24:43;27.77;;;19.70;;
21624;SDS011;10974;51.034;3.744;2023-05-10T07:27:09;27.50;;;20.20;;
21624;SDS011;10974;51.034;3.744;2023-05-10T07:29:35;26.60;;;19.27;;
21624;SDS011;10974;51.034;3.744;2023-05-10T07:32:02;29.27;;;20.60;;
21624;SDS011;10974;51.034;3.744;2023-05-10T07:34:28;25.80;;;19.67;;
21624;SDS011;10974;51.034;3.744;2023-05-10T07:36:56;25.80;;;18.90;;
21624;SDS011;10974;51.034;3.744;2023-05-10T07:39:22;23.73;;;18.57;;
21624;SDS011;10974;51.034;3.744;2023-05-10T07:41:48;28.23;;;19.87;;
21624;SDS011;10974;51.034;3.744;2023-05-10T07:44:14;28.23;;;19.47;;
21624;SDS011;10974;51.034;3.744;2023-05-10T07:46:43;25.00;;;18.17;;
21624;SDS011;10974;51.034;3.744;2023-05-10T07:49:12;28.27;;;17.80;;
21624;SDS011;10974;51.034;3.744;2023-05-10T07:51:38;27.10;;;18.20;;
21624;SDS011;10974;51.034;3.744;2023-05-10T07:54:05;24.27;;;17.47;;
21624;SDS011;10974;51.034;3.744;2023-05-10T07:56:31;24.90;;;18.57;;
21624;SDS011;10974;51.034;3.744;2023-05-10T07:59:01;27.77;;;18.80;;
21624;SDS011;10974;51.034;3.744;2023-05-10T08:01:32;25.10;;;18.27;;
21624;SDS011;10974;51.034;3.744;2023-05-10T08:03:58;23.40;;;18.00;;
21624;SDS011;10974;51.034;3.744;2023-05-10T08:06:25;26.60;;;18.20;;
21624;SDS011;10974;51.034;3.744;2023-05-10T08:08:55;28.07;;;17.37;;
21624;SDS011;10974;51.034;3.744;2023-05-10T08:11:21;26.70;;;19.80;;
21624;SDS011;10974;51.034;3.744;2023-05-10T08:13:48;26.93;;;19.80;;
21624;SDS011;10974;51.034;3.744;2023-05-10T08:16:14;29.90;;;20.43;;
21624;SDS011;10974;51.034;3.744;2023-05-10T08:18:40;27.80;;;20.10;;
21624;SDS011;10974;51.034;3.744;2023-05-10T08:21:06;28.40;;;19.20;;
21624;SDS011;10974;51.034;3.744;2023-05-10T08:23:33;30.13;;;18.33;;
21624;SDS011;10974;51.034;3.744;2023-05-10T08:25:59;26.23;;;17.53;;
21624;SDS011;10974;51.034;3.744;2023-05-10T08:28:25;27.33;;;17.80;;
21624;SDS011;10974;51.034;3.744;2023-05-10T08:30:52;27.97;;;17.60;;
21624;SDS011;10974;51.034;3.744;2023-05-10T08:33:18;22.80;;;16.63;;
21624;SDS011;10974;51.034;3.744;2023-05-10T08:35:45;24.33;;;16.03;;
21624;SDS011;10974;51.034;3.744;2023-05-10T08:38:11;23.47;;;15.80;;
21624;SDS011;10974;51.034;3.744;2023-05-10T08:40:38;20.30;;;14.40;;
21624;SDS011;10974;51.034;3.744;2023-05-10T08:43:07;24.07;;;15.57;;
21624;SDS011;10974;51.034;3.744;2023-05-10T08:45:37;22.50;;;14.60;;
21624;SDS011;10974;51.034;3.744;2023-05-10T08:48:07;26.23;;;15.77;;
21624;SDS011;10974;51.034;3.744;2023-05-10T08:50:35;19.83;;;13.80;;
21624;SDS011;10974;51.034;3.744;2023-05-10T08:53:03;18.30;;;13.67;;
21624;SDS011;10974;51.034;3.744;2023-05-10T08:55:30;17.97;;;12.93;;
21624;SDS011;10974;51.034;3.744;2023-05-10T08:57:57;21.03;;;13.10;;
21624;SDS011;10974;51.034;3.744;2023-05-10T09:00:24;18.63;;;12.87;;
21624;SDS011;10974;51.034;3.744;2023-05-10T09:02:50;18.97;;;12.70;;
21624;SDS011;10974;51.034;3.744;2023-05-10T09:05:16;19.30;;;12.57;;
21624;SDS011;10974;51.034;3.744;2023-05-10T09:07:42;20.07;;;12.40;;
21624;SDS011;10974;51.034;3.744;2023-05-10T09:10:09;20.63;;;13.30;;
21624;SDS011;10974;51.034;3.744;2023-05-10T09:12:36;17.67;;;13.40;;
21624;SDS011;10974;51.034;3.744;2023-05-10T09:15:02;18.80;;;12.80;;
21624;SDS011;10974;51.034;3.744;2023-05-10T09:17:29;21.30;;;13.60;;
21624;SDS011;10974;51.034;3.744;2023-05-10T09:19:59;23.23;;;14.20;;
21624;SDS011;10974;51.034;3.744;2023-05-10T09:22:25;23.13;;;14.03;;
21624;SDS011;10974;51.034;3.744;2023-05-10T09:27:39;19.57;;;14.03;;
21624;SDS011;10974;51.034;3.744;2023-05-10T09:30:05;17.30;;;13.60;;
21624;SDS011;10974;51.034;3.744;2023-05-10T09:32:42;18.77;;;13.90;;
21624;SDS011;10974;51.034;3.744;2023-05-10T09:35:09;17.80;;;12.50;;
21624;SDS011;10974;51.034;3.744;2023-05-10T09:37:35;19.27;;;12.97;;
21624;SDS011;10974;51.034;3.744;2023-05-10T09:40:04;17.33;;;12.87;;
21624;SDS011;10974;51.034;3.744;2023-05-10T09:42:31;18.67;;;13.03;;
21624;SDS011;10974;51.034;3.744;2023-05-10T09:45:03;17.03;;;12.60;;
21624;SDS011;10974;51.034;3.744;2023-05-10T09:47:33;15.67;;;12.10;;
21624;SDS011;10974;51.034;3.744;2023-05-10T09:49:59;16.13;;;12.57;;
21624;SDS011;10974;51.034;3.744;2023-05-10T09:52:51;19.73;;;13.00;;
21624;SDS011;10974;51.034;3.744;2023-05-10T09:55:20;15.83;;;11.80;;
21624;SDS011;10974;51.034;3.744;2023-05-10T09:57:47;18.50;;;12.03;;
21624;SDS011;10974;51.034;3.744;2023-05-10T10:00:17;17.20;;;12.37;;
21624;SDS011;10974;51.034;3.744;2023-05-10T10:02:46;17.30;;;12.67;;
21624;SDS011;10974;51.034;3.744;2023-05-10T10:05:12;16.13;;;12.13;;
21624;SDS011;10974;51.034;3.744;2023-05-10T10:07:38;18.87;;;12.20;;
21624;SDS011;10974;51.034;3.744;2023-05-10T10:10:05;17.20;;;11.10;;
21624;SDS011;10974;51.034;3.744;2023-05-10T10:12:36;20.00;;;11.70;;
21624;SDS011;10974;51.034;3.744;2023-05-10T10:15:02;17.97;;;11.93;;
21624;SDS011;10974;51.034;3.744;2023-05-10T10:17:29;17.57;;;11.87;;
21624;SDS011;10974;51.034;3.744;2023-05-10T10:19:56;15.80;;;10.70;;
21624;SDS011;10974;51.034;3.744;2023-05-10T10:22:23;13.70;;;10.33;;
21624;SDS011;10974;51.034;3.744;2023-05-10T10:24:50;17.17;;;10.60;;
21624;SDS011;10974;51.034;3.744;2023-05-10T10:30:11;19.93;;;11.77;;
21624;SDS011;10974;51.034;3.744;2023-05-10T10:32:55;16.93;;;11.17;;
21624;SDS011;10974;51.034;3.744;2023-05-10T10:35:27;21.33;;;11.73;;
21624;SDS011;10974;51.034;3.744;2023-05-10T10:37:53;17.03;;;11.23;;
21624;SDS011;10974;51.034;3.744;2023-05-10T10:42:51;15.03;;;11.07;;
21624;SDS011;10974;51.034;3.744;2023-05-10T10:45:18;19.83;;;11.23;;
21624;SDS011;10974;51.034;3.744;2023-05-10T10:47:45;16.93;;;10.03;;
21624;SDS011;10974;51.034;3.744;2023-05-10T10:50:11;15.77;;;9.80;;
21624;SDS011;10974;51.034;3.744;2023-05-10T10:52:44;16.83;;;10.30;;
21624;SDS011;10974;51.034;3.744;2023-05-10T10:55:14;13.27;;;10.13;;
21624;SDS011;10974;51.034;3.744;2023-05-10T11:00:18;19.53;;;11.17;;
21624;SDS011;10974;51.034;3.744;2023-05-10T11:02:46;15.30;;;11.40;;
21624;SDS011;10974;51.034;3.744;2023-05-10T11:07:56;13.80;;;10.83;;
21624;SDS011;10974;51.034;3.744;2023-05-10T11:10:23;17.60;;;11.00;;
21624;SDS011;10974;51.034;3.744;2023-05-10T11:13:00;14.43;;;11.57;;
21624;SDS011;10974;51.034;3.744;2023-05-10T11:15:33;16.23;;;12.00;;
21624;SDS011;10974;51.034;3.744;2023-05-10T11:18:00;15.83;;;10.90;;
21624;SDS011;10974;51.034;3.744;2023-05-10T11:20:41;15.17;;;10.90;;
21624;SDS011;10974;51.034;3.744;2023-05-10T11:23:14;16.43;;;11.23;;
21624;SDS011;10974;51.034;3.744;2023-05-10T11:25:44;16.90;;;12.97;;
21624;SDS011;10974;51.034;3.744;2023-05-10T11:28:11;16.40;;;12.33;;
21624;SDS011;10974;51.034;3.744;2023-05-10T11:30:38;20.13;;;13.57;;
21624;SDS011;10974;51.034;3.744;2023-05-10T11:33:05;17.33;;;14.00;;
21624;SDS011;10974;51.034;3.744;2023-05-10T11:35:36;20.07;;;14.60;;
21624;SDS011;10974;51.034;3.744;2023-05-10T11:38:04;22.77;;;13.70;;
21624;SDS011;10974;51.034;3.744;2023-05-10T11:40:31;20.97;;;15.40;;
21624;SDS011;10974;51.034;3.744;2023-05-10T11:42:57;18.20;;;13.67;;
21624;SDS011;10974;51.034;3.744;2023-05-10T11:45:23;20.23;;;14.40;;
21624;SDS011;10974;51.034;3.744;2023-05-10T11:47:49;18.53;;;14.20;;
21624;SDS011;10974;51.034;3.744;2023-05-10T11:50:16;21.73;;;15.50;;
21624;SDS011;10974;51.034;3.744;2023-05-10T11:52:43;19.67;;;15.60;;
21624;SDS011;10974;51.034;3.744;2023-05-10T11:55:09;20.20;;;16.10;;
21624;SDS011;10974;51.034;3.744;2023-05-10T11:57:35;18.50;;;16.40;;
21624;SDS011;10974;51.034;3.744;2023-05-10T12:00:03;20.50;;;16.53;;
21624;SDS011;10974;51.034;3.744;2023-05-10T12:02:30;22.40;;;17.47;;
21624;SDS011;10974;51.034;3.744;2023-05-10T12:04:56;22.27;;;17.37;;
21624;SDS011;10974;51.034;3.744;2023-05-10T12:07:22;25.50;;;16.50;;
21624;SDS011;10974;51.034;3.744;2023-05-10T12:10:10;20.50;;;15.90;;
21624;SDS011;10974;51.034;3.744;2023-05-10T12:12:39;25.47;;;16.43;;
21624;SDS011;10974;51.034;3.744;2023-05-10T12:15:10;19.70;;;15.07;;
21624;SDS011;10974;51.034;3.744;2023-05-10T12:17:37;17.17;;;15.27;;
21624;SDS011;10974;51.034;3.744;2023-05-10T12:20:13;19.17;;;13.83;;
21624;SDS011;10974;51.034;3.744;2023-05-10T12:22:40;19.77;;;15.03;;
21624;SDS011;10974;51.034;3.744;2023-05-10T12:25:07;20.93;;;14.20;;
21624;SDS011;10974;51.034;3.744;2023-05-10T12:27:33;19.47;;;13.77;;
21624;SDS011;10974;51.034;3.744;2023-05-10T12:30:00;16.30;;;12.63;;
21624;SDS011;10974;51.034;3.744;2023-05-10T12:32:38;16.87;;;14.67;;
21624;SDS011;10974;51.034;3.744;2023-05-10T12:35:05;17.43;;;13.20;;
21624;SDS011;10974;51.034;3.744;2023-05-10T12:37:31;16.50;;;12.73;;
21624;SDS011;10974;51.034;3.744;2023-05-10T12:40:00;16.03;;;13.97;;
21624;SDS011;10974;51.034;3.744;2023-05-10T12:42:27;17.00;;;13.53;;
21624;SDS011;10974;51.034;3.744;2023-05-10T12:44:55;15.93;;;13.80;;
21624;SDS011;10974;51.034;3.744;2023-05-10T12:47:21;17.53;;;12.93;;
21624;SDS011;10974;51.034;3.744;2023-05-10T12:49:47;17.53;;;13.37;;
21624;SDS011;10974;51.034;3.744;2023-05-10T12:52:13;18.97;;;13.07;;
21624;SDS011;10974;51.034;3.744;2023-05-10T12:54:39;19.73;;;14.00;;
21624;SDS011;10974;51.034;3.744;2023-05-10T12:57:05;23.00;;;12.67;;
21624;SDS011;10974;51.034;3.744;2023-05-10T12:59:31;18.63;;;13.97;;
21624;SDS011;10974;51.034;3.744;2023-05-10T13:01:57;17.17;;;13.70;;
21624;SDS011;10974;51.034;3.744;2023-05-10T13:04:23;18.83;;;13.37;;
21624;SDS011;10974;51.034;3.744;2023-05-10T13:06:50;18.80;;;14.60;;
21624;SDS011;10974;51.034;3.744;2023-05-10T13:09:16;17.70;;;13.83;;
21624;SDS011;10974;51.034;3.744;2023-05-10T13:11:42;17.27;;;14.10;;
21624;SDS011;10974;51.034;3.744;2023-05-10T13:14:08;15.07;;;13.40;;
21624;SDS011;10974;51.034;3.744;2023-05-10T13:16:34;20.07;;;14.40;;
21624;SDS011;10974;51.034;3.744;2023-05-10T13:19:00;13.67;;;12.27;;
21624;SDS011;10974;51.034;3.744;2023-05-10T13:21:26;16.63;;;13.30;;
21624;SDS011;10974;51.034;3.744;2023-05-10T13:23:53;15.27;;;13.07;;
21624;SDS011;10974;51.034;3.744;2023-05-10T13:26:19;16.27;;;13.27;;
21624;SDS011;10974;51.034;3.744;2023-05-10T13:28:45;12.13;;;9.27;;
21624;SDS011;10974;51.034;3.744;2023-05-10T13:31:11;14.17;;;9.03;;
21624;SDS011;10974;51.034;3.744;2023-05-10T13:33:37;15.53;;;10.83;;
21624;SDS011;10974;51.034;3.744;2023-05-10T13:36:03;14.17;;;10.43;;
21624;SDS011;10974;51.034;3.744;2023-05-10T13:38:29;16.60;;;11.03;;
21624;SDS011;10974;51.034;3.744;2023-05-10T13:40:55;14.70;;;11.13;;
21624;SDS011;10974;51.034;3.744;2023-05-10T13:43:21;19.63;;;11.17;;
21624;SDS011;10974;51.034;3.744;2023-05-10T13:45:47;16.73;;;11.37;;
21624;SDS011;10974;51.034;3.744;2023-05-10T13:48:13;15.63;;;11.13;;
21624;SDS011;10974;51.034;3.744;2023-05-10T13:50:40;19.00;;;12.03;;
21624;SDS011;10974;51.034;3.744;2023-05-10T13:53:06;15.93;;;11.07;;
21624;SDS011;10974;51.034;3.744;2023-05-10T13:55:32;13.33;;;11.63;;
21624;SDS011;10974;51.034;3.744;2023-05-10T13:57:58;15.53;;;11.90;;
21624;SDS011;10974;51.034;3.744;2023-05-10T14:00:25;16.67;;;11.90;;
21624;SDS011;10974;51.034;3.744;2023-05-10T14:02:51;18.07;;;12.40;;
21624;SDS011;10974;51.034;3.744;2023-05-10T14:05:17;16.90;;;12.00;;
21624;SDS011;10974;51.034;3.744;2023-05-10T14:07:43;20.40;;;12.87;;
21624;SDS011;10974;51.034;3.744;2023-05-10T14:10:09;20.73;;;14.40;;
21624;SDS011;10974;51.034;3.744;2023-05-10T14:12:35;19.70;;;14.47;;
21624;SDS011;10974;51.034;3.744;2023-05-10T14:15:01;23.60;;;13.40;;
21624;SDS011;10974;51.034;3.744;2023-05-10T14:17:28;20.47;;;12.50;;
21624;SDS011;10974;51.034;3.744;2023-05-10T14:19:54;16.23;;;12.57;;
21624;SDS011;10974;51.034;3.744;2023-05-10T14:22:20;20.13;;;12.30;;
21624;SDS011;10974;51.034;3.744;2023-05-10T14:24:46;17.80;;;12.83;;
21624;SDS011;10974;51.034;3.744;2023-05-10T14:27:12;20.73;;;12.70;;
21624;SDS011;10974;51.034;3.744;2023-05-10T14:29:38;17.40;;;12.20;;
21624;SDS011;10974;51.034;3.744;2023-05-10T14:32:04;18.70;;;12.40;;
21624;SDS011;10974;51.034;3.744;2023-05-10T14:34:30;16.70;;;12.20;;
21624;SDS011;10974;51.034;3.744;2023-05-10T14:36:56;15.17;;;11.83;;
21624;SDS011;10974;51.034;3.744;2023-05-10T14:39:23;19.87;;;12.70;;
21624;SDS011;10974;51.034;3.744;2023-05-10T14:41:50;18.23;;;11.63;;
21624;SDS011;10974;51.034;3.744;2023-05-10T14:44:17;17.80;;;12.10;;
21624;SDS011;10974;51.034;3.744;2023-05-10T14:46:43;17.03;;;11.90;;
21624;SDS011;10974;51.034;3.744;2023-05-10T14:49:09;18.77;;;11.30;;
21624;SDS011;10974;51.034;3.744;2023-05-10T14:51:35;15.30;;;10.47;;
21624;SDS011;10974;51.034;3.744;2023-05-10T14:54:01;13.10;;;11.23;;
21624;SDS011;10974;51.034;3.744;2023-05-10T14:56:28;18.90;;;11.17;;
21624;SDS011;10974;51.034;3.744;2023-05-10T14:58:54;15.20;;;11.00;;
21624;SDS011;10974;51.034;3.744;2023-05-10T15:01:20;15.67;;;11.70;;
21624;SDS011;10974;51.034;3.744;2023-05-10T15:03:46;16.47;;;10.93;;
21624;SDS011;10974;51.034;3.744;2023-05-10T15:06:13;15.57;;;11.00;;
21624;SDS011;10974;51.034;3.744;2023-05-10T15:08:40;16.33;;;9.50;;
21624;SDS011;10974;51.034;3.744;2023-05-10T15:11:07;13.00;;;8.67;;
21624;SDS011;10974;51.034;3.744;2023-05-10T15:13:33;12.13;;;7.90;;
21624;SDS011;10974;51.034;3.744;2023-05-10T15:15:59;8.77;;;7.17;;
21624;SDS011;10974;51.034;3.744;2023-05-10T15:18:25;12.50;;;8.00;;
21624;SDS011;10974;51.034;3.744;2023-05-10T15:20:51;14.93;;;7.40;;
21624;SDS011;10974;51.034;3.744;2023-05-10T15:23:17;14.60;;;7.20;;
21624;SDS011;10974;51.034;3.744;2023-05-10T15:25:43;12.90;;;6.20;;
21624;SDS011;10974;51.034;3.744;2023-05-10T15:28:09;12.10;;;6.27;;
21624;SDS011;10974;51.034;3.744;2023-05-10T15:30:35;7.90;;;5.13;;
21624;SDS011;10974;51.034;3.744;2023-05-10T15:33:01;10.03;;;4.80;;
21624;SDS011;10974;51.034;3.744;2023-05-10T15:35:27;11.63;;;5.70;;
21624;SDS011;10974;51.034;3.744;2023-05-10T15:37:53;12.70;;;5.53;;
21624;SDS011;10974;51.034;3.744;2023-05-10T15:40:19;11.97;;;4.80;;
21624;SDS011;10974;51.034;3.744;2023-05-10T15:42:45;10.07;;;5.53;;
21624;SDS011;10974;51.034;3.744;2023-05-10T15:45:11;12.57;;;5.97;;
21624;SDS011;10974;51.034;3.744;2023-05-10T15:47:37;7.40;;;4.77;;
21624;SDS011;10974;51.034;3.744;2023-05-10T15:50:06;7.83;;;5.40;;
21624;SDS011;10974;51.034;3.744;2023-05-10T15:52:33;13.33;;;5.03;;
21624;SDS011;10974;51.034;3.744;2023-05-10T15:54:59;13.20;;;5.27;;
21624;SDS011;10974;51.034;3.744;2023-05-10T15:57:25;9.90;;;4.37;;
21624;SDS011;10974;51.034;3.744;2023-05-10T15:59:51;11.90;;;5.17;;
21624;SDS011;10974;51.034;3.744;2023-05-10T16:02:17;10.03;;;4.90;;
21624;SDS011;10974;51.034;3.744;2023-05-10T16:04:43;11.73;;;5.10;;
21624;SDS011;10974;51.034;3.744;2023-05-10T16:07:09;12.97;;;5.30;;
21624;SDS011;10974;51.034;3.744;2023-05-10T16:09:35;10.20;;;4.90;;
21624;SDS011;10974;51.034;3.744;2023-05-10T16:12:01;12.07;;;4.30;;
21624;SDS011;10974;51.034;3.744;2023-05-10T16:14:28;7.10;;;3.97;;
21624;SDS011;10974;51.034;3.744;2023-05-10T16:16:54;10.33;;;4.30;;
21624;SDS011;10974;51.034;3.744;2023-05-10T16:19:20;15.63;;;5.37;;
21624;SDS011;10974;51.034;3.744;2023-05-10T16:21:47;19.30;;;8.80;;
21624;SDS011;10974;51.034;3.744;2023-05-10T16:24:13;18.00;;;6.50;;
21624;SDS011;10974;51.034;3.744;2023-05-10T16:26:39;13.57;;;6.33;;
21624;SDS011;10974;51.034;3.744;2023-05-10T16:29:06;12.80;;;6.50;;
21624;SDS011;10974;51.034;3.744;2023-05-10T16:31:32;16.53;;;6.00;;
21624;SDS011;10974;51.034;3.744;2023-05-10T16:33:58;11.80;;;5.20;;
21624;SDS011;10974;51.034;3.744;2023-05-10T16:36:24;14.40;;;5.47;;
21624;SDS011;10974;51.034;3.744;2023-05-10T16:38:50;11.80;;;5.50;;
21624;SDS011;10974;51.034;3.744;2023-05-10T16:41:16;14.17;;;4.63;;
21624;SDS011;10974;51.034;3.744;2023-05-10T16:43:42;9.57;;;5.30;;
21624;SDS011;10974;51.034;3.744;2023-05-10T16:46:11;12.13;;;5.43;;
21624;SDS011;10974;51.034;3.744;2023-05-10T16:48:37;13.60;;;4.53;;
21624;SDS011;10974;51.034;3.744;2023-05-10T16:51:03;10.43;;;4.40;;
21624;SDS011;10974;51.034;3.744;2023-05-10T16:53:29;6.63;;;3.37;;
21624;SDS011;10974;51.034;3.744;2023-05-10T16:55:56;11.00;;;3.90;;
21624;SDS011;10974;51.034;3.744;2023-05-10T16:58:22;9.60;;;4.00;;
21624;SDS011;10974;51.034;3.744;2023-05-10T17:00:48;11.83;;;4.50;;
21624;SDS011;10974;51.034;3.744;2023-05-10T17:03:14;10.23;;;4.33;;
21624;SDS011;10974;51.034;3.744;2023-05-10T17:05:40;9.43;;;4.07;;
21624;SDS011;10974;51.034;3.744;2023-05-10T17:08:07;9.77;;;4.70;;
21624;SDS011;10974;51.034;3.744;2023-05-10T17:10:33;12.80;;;4.77;;
21624;SDS011;10974;51.034;3.744;2023-05-10T17:13:00;12.60;;;4.80;;
21624;SDS011;10974;51.034;3.744;2023-05-10T17:15:26;10.27;;;4.50;;
21624;SDS011;10974;51.034;3.744;2023-05-10T17:17:53;8.90;;;4.77;;
21624;SDS011;10974;51.034;3.744;2023-05-10T17:20:19;11.63;;;4.87;;
21624;SDS011;10974;51.034;3.744;2023-05-10T17:22:45;9.93;;;4.80;;
21624;SDS011;10974;51.034;3.744;2023-05-10T17:25:11;15.37;;;4.73;;
21624;SDS011;10974;51.034;3.744;2023-05-10T17:27:37;11.53;;;4.67;;
21624;SDS011;10974;51.034;3.744;2023-05-10T17:30:03;14.37;;;4.37;;
21624;SDS011;10974;51.034;3.744;2023-05-10T17:32:30;9.73;;;4.80;;
21624;SDS011;10974;51.034;3.744;2023-05-10T17:34:56;14.20;;;5.33;;
21624;SDS011;10974;51.034;3.744;2023-05-10T17:37:22;11.90;;;4.83;;
21624;SDS011;10974;51.034;3.744;2023-05-10T17:39:48;11.93;;;5.33;;
21624;SDS011;10974;51.034;3.744;2023-05-10T17:42:14;13.60;;;4.87;;
21624;SDS011;10974;51.034;3.744;2023-05-10T17:44:43;14.80;;;5.00;;
21624;SDS011;10974;51.034;3.744;2023-05-10T17:47:09;12.67;;;5.10;;
21624;SDS011;10974;51.034;3.744;2023-05-10T17:49:35;12.77;;;5.20;;
21624;SDS011;10974;51.034;3.744;2023-05-10T17:52:01;12.43;;;5.00;;
21624;SDS011;10974;51.034;3.744;2023-05-10T17:54:27;16.80;;;6.53;;
21624;SDS011;10974;51.034;3.744;2023-05-10T17:56:53;11.37;;;5.13;;
21624;SDS011;10974;51.034;3.744;2023-05-10T17:59:19;28.17;;;11.83;;
21624;SDS011;10974;51.034;3.744;2023-05-10T18:01:45;18.90;;;8.73;;
21624;SDS011;10974;51.034;3.744;2023-05-10T18:04:12;16.57;;;7.30;;
21624;SDS011;10974;51.034;3.744;2023-05-10T18:06:38;15.03;;;8.00;;
21624;SDS011;10974;51.034;3.744;2023-05-10T18:09:04;14.00;;;5.60;;
21624;SDS011;10974;51.034;3.744;2023-05-10T18:11:33;10.10;;;5.60;;
21624;SDS011;10974;51.034;3.744;2023-05-10T18:14:00;13.77;;;5.57;;
21624;SDS011;10974;51.034;3.744;2023-05-10T18:16:26;10.80;;;5.80;;